createdAt,value
2017-11-18T00:01:24.251Z,74.80
2017-11-18T00:03:52.049Z,75.20
2017-11-18T00:06:19.859Z,74.50
2017-11-18T00:08:47.448Z,74.50
2017-11-18T00:11:15.120Z,74.60
2017-11-18T00:13:42.753Z,74.70
2017-11-18T00:18:49.537Z,74.80
2017-11-18T00:23:44.806Z,73.90
2017-11-18T00:26:12.925Z,73.90
2017-11-18T00:28:40.541Z,84.50
2017-11-18T00:31:08.985Z,81.20
2017-11-18T00:33:37.380Z,77.00
2017-11-18T00:36:05.463Z,75.40
2017-11-18T00:38:33.086Z,75.10
2017-11-18T00:41:00.785Z,75.90
2017-11-18T00:43:28.999Z,76.20
2017-11-18T00:48:29.429Z,76.70
2017-11-18T00:50:57.404Z,76.90
2017-11-18T00:53:25.035Z,76.70
2017-11-18T00:55:54.041Z,76.50
2017-11-18T00:58:21.665Z,77.00
2017-11-18T01:00:49.643Z,76.70
2017-11-18T01:03:17.459Z,76.90
2017-11-18T01:05:46.133Z,77.40
2017-11-18T01:08:13.756Z,77.50
2017-11-18T01:10:41.484Z,77.20
2017-11-18T01:13:10.005Z,77.20
2017-11-18T01:15:37.627Z,76.80
2017-11-18T01:18:05.306Z,76.90
2017-11-18T01:20:32.935Z,76.70
2017-11-18T01:23:00.563Z,76.20
2017-11-18T01:25:28.254Z,76.00
2017-11-18T01:27:55.879Z,76.10
2017-11-18T01:30:23.504Z,75.90
2017-11-18T01:32:52.149Z,75.70
2017-11-18T01:35:19.782Z,75.80
2017-11-18T01:37:47.409Z,75.50
2017-11-18T01:40:15.107Z,75.30
2017-11-18T01:45:21.884Z,75.40
2017-11-18T01:47:49.531Z,75.10
2017-11-18T01:50:18.083Z,74.70
2017-11-18T01:52:46.727Z,74.90
2017-11-18T01:55:15.187Z,75.10
2017-11-18T01:57:43.778Z,74.90
2017-11-18T02:00:13.059Z,75.00
2017-11-18T02:02:43.525Z,75.30
2017-11-18T02:05:12.181Z,75.40
2017-11-18T02:07:40.721Z,75.60
2017-11-18T02:10:08.358Z,75.20
2017-11-18T02:15:04.626Z,75.80
2017-11-18T02:17:32.250Z,77.00
2017-11-18T02:22:27.591Z,78.60
2017-11-18T02:24:55.238Z,78.90
2017-11-18T02:29:50.605Z,77.50
2017-11-18T02:32:18.245Z,78.40
2017-11-18T02:34:45.966Z,77.50
2017-11-18T02:37:13.590Z,76.90
2017-11-18T02:39:41.230Z,76.30
2017-11-18T02:42:08.938Z,76.20
2017-11-18T02:44:37.531Z,76.40
2017-11-18T02:47:05.172Z,76.10
2017-11-18T02:49:32.861Z,76.70
2017-11-18T02:52:01.326Z,78.40
2017-11-18T02:54:28.945Z,78.80
2017-11-18T02:56:56.650Z,79.00
2017-11-18T02:59:24.292Z,78.90
2017-11-18T03:01:51.938Z,78.60
2017-11-18T03:04:19.619Z,79.10
2017-11-18T03:09:26.427Z,79.70
2017-11-18T03:11:54.053Z,79.50
2017-11-18T03:14:24.447Z,78.90
2017-11-18T03:16:51.726Z,78.20
2017-11-18T03:19:22.319Z,77.90
2017-11-18T03:21:47.144Z,77.20
2017-11-18T03:24:14.825Z,77.00
2017-11-18T03:26:42.448Z,77.20
2017-11-18T03:29:10.130Z,77.20
2017-11-18T03:31:37.805Z,77.70
2017-11-18T03:34:05.433Z,77.50
2017-11-18T03:36:33.063Z,77.10
2017-11-18T03:39:00.750Z,77.10
2017-11-18T03:41:28.370Z,77.30
2017-11-18T03:43:55.996Z,77.70
2017-11-18T03:46:23.695Z,77.70
2017-11-18T03:48:51.322Z,78.10
2017-11-18T03:53:59.774Z,78.20
2017-11-18T03:56:27.386Z,77.90
2017-11-18T03:58:55.993Z,77.00
2017-11-18T04:01:23.674Z,76.60
2017-11-18T04:03:51.308Z,76.70
2017-11-18T04:06:18.948Z,77.00
2017-11-18T04:08:46.632Z,76.90
2017-11-18T04:11:15.197Z,76.70
2017-11-18T04:13:42.836Z,76.30
2017-11-18T04:18:49.305Z,77.10
2017-11-18T04:21:17.005Z,76.80
2017-11-18T04:23:45.469Z,76.10
2017-11-18T04:26:14.251Z,76.30
2017-11-18T04:28:41.935Z,76.90
2017-11-18T04:31:09.579Z,77.00
2017-11-18T04:33:37.216Z,77.00
2017-11-18T04:36:06.179Z,77.10
2017-11-18T04:38:33.813Z,77.40
2017-11-18T04:41:01.446Z,77.10
2017-11-18T04:43:29.912Z,77.50
2017-11-18T04:45:58.398Z,78.30
2017-11-18T04:48:26.027Z,78.70
2017-11-18T04:50:54.541Z,78.60
2017-11-18T04:53:22.188Z,78.80
2017-11-18T04:58:17.520Z,79.10
2017-11-18T05:00:45.155Z,79.10
2017-11-18T05:05:40.494Z,78.40
2017-11-18T05:08:08.155Z,79.60
2017-11-18T05:13:03.458Z,81.20
2017-11-18T05:15:31.521Z,81.20
2017-11-18T05:17:59.079Z,81.00
2017-11-18T05:20:26.769Z,80.40
2017-11-18T05:22:55.353Z,79.90
2017-11-18T05:25:22.978Z,80.10
2017-11-18T05:27:50.672Z,80.20
2017-11-18T05:30:18.304Z,79.70
2017-11-18T05:32:45.924Z,79.40
2017-11-18T05:35:14.568Z,79.50
2017-11-18T05:37:42.196Z,79.70
2017-11-18T05:40:09.830Z,79.70
2017-11-18T05:45:18.634Z,79.50
2017-11-18T05:47:46.313Z,80.20
2017-11-18T05:50:13.938Z,80.00
2017-11-18T05:55:09.270Z,79.30
2017-11-18T05:57:36.888Z,79.30
2017-11-18T06:00:04.521Z,79.00
2017-11-18T06:02:32.203Z,79.30
2017-11-18T06:04:59.829Z,78.90
2017-11-18T06:07:27.462Z,78.80
2017-11-18T06:09:55.158Z,79.00
2017-11-18T06:12:22.800Z,79.30
2017-11-18T06:14:50.422Z,78.90
2017-11-18T06:17:18.103Z,78.90
2017-11-18T06:22:13.364Z,78.50
2017-11-18T06:24:41.068Z,78.00
2017-11-18T06:27:08.692Z,78.40
2017-11-18T06:29:36.321Z,78.60
2017-11-18T06:34:43.077Z,78.80
2017-11-18T06:37:10.779Z,78.20
2017-11-18T06:39:38.418Z,77.10
2017-11-18T06:44:33.742Z,77.20
2017-11-18T06:47:01.377Z,77.30
2017-11-18T06:49:29.012Z,77.40
2017-11-18T06:51:56.720Z,77.50
2017-11-18T06:54:24.362Z,77.30
2017-11-18T06:56:52.000Z,77.70
2017-11-18T06:59:21.167Z,78.80
2017-11-18T07:01:48.811Z,78.60
2017-11-18T07:04:19.262Z,78.80
2017-11-18T07:06:46.969Z,78.70
2017-11-18T07:09:14.619Z,78.20
2017-11-18T07:11:43.073Z,78.40
2017-11-18T07:14:10.795Z,78.30
2017-11-18T07:19:06.076Z,78.90
2017-11-18T07:21:33.766Z,79.20
2017-11-18T07:26:29.029Z,79.30
2017-11-18T07:28:56.729Z,79.70
2017-11-18T07:31:24.366Z,81.20
2017-11-18T07:33:52.034Z,80.10
2017-11-18T07:36:19.739Z,80.10
2017-11-18T07:38:47.415Z,80.10
2017-11-18T07:41:15.099Z,79.30
2017-11-18T07:43:42.813Z,79.60
2017-11-18T07:46:10.441Z,79.50
2017-11-18T07:48:38.081Z,79.60
2017-11-18T07:51:05.779Z,79.10
2017-11-18T07:53:33.407Z,79.00
2017-11-18T07:56:01.048Z,79.00
2017-11-18T08:01:07.856Z,78.10
2017-11-18T08:03:35.553Z,79.00
2017-11-18T08:06:03.199Z,78.20
2017-11-18T08:08:30.846Z,78.40
2017-11-18T08:10:59.474Z,78.30
2017-11-18T08:15:55.589Z,78.10
2017-11-18T08:18:23.295Z,78.60
2017-11-18T08:20:50.916Z,77.50
2017-11-18T08:23:18.550Z,77.60
2017-11-18T08:25:46.268Z,77.70
2017-11-18T08:28:13.896Z,76.00
2017-11-18T08:30:41.526Z,77.20
2017-11-18T08:33:09.220Z,75.90
2017-11-18T08:35:36.847Z,75.60
2017-11-18T08:38:04.482Z,77.10
2017-11-18T08:40:32.178Z,75.70
2017-11-18T08:42:59.809Z,74.50
2017-11-18T08:45:27.440Z,73.00
2017-11-18T08:47:55.124Z,72.00
2017-11-18T08:50:22.757Z,71.90
2017-11-18T08:55:18.100Z,74.60
2017-11-18T08:57:45.744Z,74.10
2017-11-18T09:02:53.373Z,73.80
2017-11-18T09:05:21.007Z,72.20
2017-11-18T09:12:43.976Z,69.50
2017-11-18T09:15:11.612Z,71.10
2017-11-18T09:17:41.531Z,69.00
2017-11-18T09:20:09.160Z,68.50
2017-11-18T09:22:41.758Z,69.80
2017-11-18T09:27:35.603Z,72.20
2017-11-18T09:30:03.232Z,69.10
2017-11-18T09:34:58.601Z,70.10
2017-11-18T09:37:26.225Z,70.00
2017-11-18T09:42:23.436Z,70.00
2017-11-18T09:44:49.733Z,69.10
2017-11-18T09:47:17.433Z,68.30
2017-11-18T09:49:45.074Z,66.20
2017-11-18T09:52:12.706Z,67.80
2017-11-18T09:54:40.418Z,68.10
2017-11-18T09:57:08.041Z,63.00
2017-11-18T09:59:35.665Z,61.70
2017-11-18T10:02:04.108Z,61.20
2017-11-18T10:04:31.408Z,60.20
2017-11-18T10:06:59.027Z,59.30
2017-11-18T10:09:26.723Z,58.90
2017-11-18T10:11:54.342Z,60.90
2017-11-18T10:14:21.990Z,61.00
2017-11-18T10:16:50.112Z,59.00
2017-11-18T10:19:17.824Z,59.90
2017-11-18T10:21:45.467Z,59.70
2017-11-18T10:26:52.270Z,55.00
2017-11-18T10:29:19.985Z,57.60
2017-11-18T10:31:47.600Z,56.00
2017-11-18T10:34:15.266Z,52.40
2017-11-18T10:36:42.976Z,53.80
2017-11-18T10:41:38.289Z,56.30
2017-11-18T10:44:05.976Z,56.00
2017-11-18T10:46:34.157Z,56.80
2017-11-18T10:49:01.797Z,57.10
2017-11-18T10:53:57.672Z,55.10
2017-11-18T10:56:25.365Z,54.00
2017-11-18T10:58:53.102Z,54.10
2017-11-18T11:01:20.728Z,54.80
2017-11-18T11:03:48.376Z,54.30
2017-11-18T11:08:43.677Z,54.10
2017-11-18T11:11:12.239Z,52.80
2017-11-18T11:13:40.885Z,56.80
2017-11-18T11:16:09.378Z,55.50
2017-11-18T11:18:37.017Z,58.10
2017-11-18T11:21:04.730Z,56.50
2017-11-18T11:23:32.349Z,50.70
2017-11-18T11:25:59.989Z,53.40
2017-11-18T11:28:27.699Z,56.00
2017-11-18T11:30:55.341Z,57.60
2017-11-18T11:33:22.975Z,55.60
2017-11-18T11:35:50.669Z,55.70
2017-11-18T11:38:18.306Z,53.80
2017-11-18T11:40:45.949Z,56.30
2017-11-18T11:43:14.617Z,57.60
2017-11-18T11:45:43.070Z,57.30
2017-11-18T11:48:10.713Z,54.80
2017-11-18T11:58:11.780Z,54.30
2017-11-18T12:00:39.430Z,56.20
2017-11-18T12:03:07.153Z,57.30
2017-11-18T12:05:38.345Z,55.80
2017-11-18T12:08:06.008Z,57.80
2017-11-18T12:10:33.705Z,58.00
2017-11-18T12:13:01.347Z,57.50
2017-11-18T12:15:28.986Z,58.90
2017-11-18T12:17:57.560Z,57.50
2017-11-18T12:20:25.205Z,56.90
2017-11-18T12:22:52.860Z,57.60
2017-11-18T12:25:21.301Z,58.60
2017-11-18T12:27:49.810Z,55.50
2017-11-18T12:30:17.439Z,52.10
2017-11-18T12:32:45.142Z,61.40
2017-11-18T12:35:12.765Z,53.30
2017-11-18T12:37:40.384Z,53.00
2017-11-18T12:40:08.087Z,50.70
2017-11-18T12:42:35.713Z,50.80
2017-11-18T12:45:04.967Z,52.50
2017-11-18T12:47:32.448Z,53.60
2017-11-18T12:50:00.079Z,54.60
2017-11-18T12:52:27.700Z,55.30
2017-11-18T12:54:56.209Z,54.50
2017-11-18T12:57:23.847Z,55.00
2017-11-18T12:59:51.469Z,53.60
2017-11-18T13:02:19.167Z,54.60
2017-11-18T13:04:46.809Z,55.00
2017-11-18T13:07:14.416Z,54.90
2017-11-18T13:09:42.097Z,55.80
2017-11-18T13:17:17.778Z,58.00
2017-11-18T13:22:26.325Z,57.30
2017-11-18T13:24:53.960Z,57.90
2017-11-18T13:27:22.480Z,58.20
2017-11-18T13:29:49.889Z,58.80
2017-11-18T13:32:17.520Z,58.80
2017-11-18T13:34:45.153Z,58.10
2017-11-18T13:37:12.831Z,58.80
2017-11-18T13:39:40.460Z,58.50
2017-11-18T13:42:08.106Z,58.40
2017-11-18T13:44:35.797Z,59.40
2017-11-18T13:47:03.727Z,59.30
2017-11-18T13:51:59.146Z,58.80
2017-11-18T13:54:26.770Z,59.30
2017-11-18T13:56:54.407Z,58.90
2017-11-18T13:59:22.401Z,59.20
2017-11-18T14:01:56.349Z,58.80
2017-11-18T14:04:23.330Z,58.60
2017-11-18T14:06:51.769Z,59.20
2017-11-18T14:09:19.406Z,59.20
2017-11-18T14:11:47.109Z,59.20
2017-11-18T14:14:14.771Z,59.40
2017-11-18T14:16:42.409Z,59.50
2017-11-18T14:19:10.127Z,59.90
2017-11-18T14:21:38.612Z,59.30
2017-11-18T14:24:07.087Z,59.30
2017-11-18T14:26:35.628Z,59.90
2017-11-18T14:34:09.652Z,58.10
2017-11-18T14:36:37.530Z,58.70
2017-11-18T14:39:05.288Z,59.80
2017-11-18T14:41:33.586Z,60.70
2017-11-18T14:46:28.915Z,61.10
2017-11-18T14:48:56.861Z,61.90
2017-11-18T14:51:24.502Z,61.90
2017-11-18T14:53:52.331Z,62.20
2017-11-18T14:56:20.018Z,63.10
2017-11-18T14:58:47.645Z,62.90
2017-11-18T15:01:15.349Z,63.20
2017-11-18T15:03:43.005Z,64.00
2017-11-18T15:06:10.627Z,63.90
2017-11-18T15:08:38.260Z,64.40
2017-11-18T15:11:06.188Z,64.60
2017-11-18T15:13:33.812Z,65.20
2017-11-18T15:21:25.742Z,66.80
2017-11-18T15:23:59.039Z,67.10
2017-11-18T15:29:08.409Z,68.70
2017-11-18T15:39:35.677Z,69.50
2017-11-18T15:44:30.920Z,70.80
2017-11-18T15:49:43.956Z,70.80
2017-11-18T15:52:16.223Z,71.30
2017-11-18T15:54:49.284Z,71.20
2017-11-18T15:59:46.972Z,71.60
2017-11-18T16:04:56.313Z,72.50
2017-11-18T16:10:07.016Z,72.20
2017-11-18T16:12:34.701Z,72.70
2017-11-18T16:15:03.676Z,71.80
2017-11-18T16:17:31.374Z,72.40
2017-11-18T16:19:59.041Z,72.30
2017-11-18T16:22:27.951Z,72.50
2017-11-18T16:24:56.620Z,72.00
2017-11-18T16:27:24.281Z,72.50
2017-11-18T16:29:51.932Z,71.80
2017-11-18T16:32:20.464Z,71.70
2017-11-18T16:34:48.122Z,72.10
2017-11-18T16:37:15.772Z,73.40
2017-11-18T16:39:43.482Z,73.50
2017-11-18T16:42:11.125Z,73.70
2017-11-18T16:44:38.758Z,73.80
2017-11-18T16:47:06.447Z,74.20
2017-11-18T16:49:34.090Z,73.90
2017-11-18T16:52:01.718Z,73.80
2017-11-18T16:54:29.425Z,73.10
2017-11-18T16:56:58.008Z,73.20
2017-11-18T16:59:25.649Z,74.10
2017-11-18T17:01:53.345Z,73.40
2017-11-18T17:04:20.973Z,73.30
2017-11-18T17:06:48.621Z,73.20
2017-11-18T17:09:16.330Z,73.00
2017-11-18T17:11:43.976Z,72.70
2017-11-18T17:16:56.237Z,72.50
2017-11-18T17:19:23.971Z,72.20
2017-11-18T17:21:52.213Z,72.40
2017-11-18T17:24:19.863Z,72.50
2017-11-18T17:26:48.970Z,72.50
2017-11-18T17:34:27.057Z,73.00
2017-11-18T17:36:55.634Z,73.00
2017-11-18T17:39:23.380Z,72.90
2017-11-18T17:41:51.516Z,73.30
2017-11-18T17:44:19.146Z,73.20
2017-11-18T17:46:46.843Z,73.60
2017-11-18T17:49:14.474Z,73.60
2017-11-18T17:51:42.129Z,73.60
2017-11-18T17:54:10.210Z,72.90
2017-11-18T17:56:37.904Z,71.80
2017-11-18T17:59:05.535Z,71.40
2017-11-18T18:01:33.230Z,70.70
2017-11-18T18:04:00.861Z,71.00
2017-11-18T18:06:28.504Z,71.20
2017-11-18T18:08:56.687Z,70.90
2017-11-18T18:11:24.327Z,70.90
2017-11-18T18:13:51.958Z,70.90
2017-11-18T18:16:20.591Z,70.90
2017-11-18T18:18:48.770Z,71.20
2017-11-18T18:21:16.397Z,70.50
2017-11-18T18:23:44.102Z,70.00
2017-11-18T18:26:11.764Z,70.40
2017-11-18T18:28:39.673Z,70.00
2017-11-18T18:31:08.308Z,70.30
2017-11-18T18:33:35.939Z,70.30
2017-11-18T18:36:03.569Z,70.60
2017-11-18T18:38:31.294Z,70.90
2017-11-18T18:40:59.747Z,70.40
2017-11-18T18:45:55.069Z,70.70
2017-11-18T18:48:25.792Z,70.60
2017-11-18T18:56:05.201Z,71.20
2017-11-18T18:58:33.850Z,70.80
2017-11-18T19:01:01.493Z,70.30
2017-11-18T19:03:29.497Z,70.40
2017-11-18T19:05:57.193Z,70.60
2017-11-18T19:08:24.825Z,70.80
2017-11-18T19:10:52.786Z,70.50
2017-11-18T19:13:20.474Z,71.60
2017-11-18T19:15:48.100Z,71.70
2017-11-18T19:18:16.559Z,71.50
2017-11-18T19:20:45.217Z,70.50
2017-11-18T19:23:12.849Z,70.40
2017-11-18T19:25:41.481Z,71.30
2017-11-18T19:28:09.168Z,71.10
2017-11-18T19:30:36.799Z,70.10
2017-11-18T19:33:04.421Z,70.40
2017-11-18T19:35:32.139Z,71.00
2017-11-18T19:37:59.782Z,71.30
2017-11-18T19:40:28.240Z,71.20
2017-11-18T19:42:55.983Z,71.10
2017-11-18T19:45:24.084Z,70.50
2017-11-18T19:47:51.732Z,70.30
2017-11-18T19:50:19.448Z,70.40
2017-11-18T19:52:47.085Z,70.30
2017-11-18T19:55:14.717Z,69.90
2017-11-18T19:57:42.406Z,69.50
2017-11-18T20:02:51.629Z,68.60
2017-11-18T20:05:19.261Z,67.80
2017-11-18T20:07:46.989Z,68.40
2017-11-18T20:10:14.692Z,66.80
2017-11-18T20:12:42.323Z,67.00
2017-11-18T20:15:09.973Z,66.80
2017-11-18T20:17:37.680Z,68.30
2017-11-18T20:20:05.312Z,70.20
2017-11-18T20:22:32.949Z,71.00
2017-11-18T20:25:00.623Z,72.70
2017-11-18T20:27:28.255Z,73.10
2017-11-18T20:32:23.618Z,74.80
2017-11-18T20:34:51.257Z,75.90
2017-11-18T20:37:18.925Z,76.20
2017-11-18T20:39:46.632Z,75.90
2017-11-18T20:42:14.310Z,74.80
2017-11-18T20:44:41.947Z,74.30
2017-11-18T20:47:09.627Z,74.10
2017-11-18T20:49:37.262Z,73.90
2017-11-18T20:52:04.899Z,73.20
2017-11-18T20:54:32.574Z,73.20
2017-11-18T20:57:00.215Z,73.30
2017-11-18T20:59:27.854Z,73.90
2017-11-18T21:01:55.562Z,74.20
2017-11-18T21:07:04.731Z,74.40
2017-11-18T21:09:32.284Z,74.20
2017-11-18T21:12:00.182Z,73.30
2017-11-18T21:14:27.826Z,73.30
2017-11-18T21:16:55.463Z,73.30
2017-11-18T21:19:23.098Z,73.00
2017-11-18T21:21:50.784Z,72.50
2017-11-18T21:24:18.712Z,72.10
2017-11-18T21:26:46.339Z,71.90
2017-11-18T21:29:14.392Z,71.80
2017-11-18T21:34:09.597Z,73.40
2017-11-18T21:36:37.312Z,74.00
2017-11-18T21:39:05.022Z,73.20
2017-11-18T21:41:32.648Z,73.30
2017-11-18T21:44:00.344Z,73.30
2017-11-18T21:46:27.987Z,73.00
2017-11-18T21:48:55.618Z,72.50
2017-11-18T21:51:23.313Z,71.30
2017-11-18T21:53:51.454Z,71.10
2017-11-18T21:56:19.068Z,70.70
2017-11-18T21:58:46.796Z,71.10
2017-11-18T22:01:14.413Z,70.80
2017-11-18T22:03:42.036Z,71.00
2017-11-18T22:06:09.739Z,71.40
2017-11-18T22:08:37.379Z,71.60
2017-11-18T22:11:05.020Z,72.10
2017-11-18T22:13:33.137Z,72.30
2017-11-18T22:16:00.784Z,72.50
2017-11-18T22:18:28.410Z,71.90
2017-11-18T22:20:56.096Z,72.20
2017-11-18T22:23:23.751Z,70.80
2017-11-18T22:25:51.357Z,71.30
2017-11-18T22:28:19.069Z,70.70
2017-11-18T22:33:25.847Z,71.50
2017-11-18T22:35:53.504Z,71.70
2017-11-18T22:38:21.137Z,71.00
2017-11-18T22:40:48.868Z,71.30
2017-11-18T22:43:16.506Z,71.60
2017-11-18T22:45:44.149Z,72.00
2017-11-18T22:48:13.039Z,72.10
2017-11-18T22:50:40.684Z,71.90
2017-11-18T22:53:08.320Z,73.50
2017-11-18T22:55:36.061Z,74.60
2017-11-18T22:58:03.692Z,74.40
2017-11-18T23:00:40.991Z,73.80
2017-11-18T23:03:08.670Z,73.90
2017-11-18T23:05:36.261Z,74.50
2017-11-18T23:08:03.983Z,75.00
2017-11-18T23:10:31.610Z,74.60
2017-11-18T23:12:59.246Z,74.50
2017-11-18T23:15:26.952Z,73.90
2017-11-18T23:17:54.592Z,74.20
2017-11-18T23:20:22.229Z,74.30
2017-11-18T23:22:49.933Z,75.30
2017-11-18T23:25:17.597Z,74.80
2017-11-18T23:27:45.991Z,75.20
2017-11-18T23:32:41.312Z,76.20
2017-11-18T23:37:50.318Z,76.10
2017-11-18T23:40:17.947Z,76.30
2017-11-18T23:42:45.591Z,76.10
2017-11-18T23:45:14.259Z,76.40
2017-11-18T23:47:41.887Z,76.00
2017-11-18T23:50:09.522Z,75.80
2017-11-18T23:52:37.224Z,75.90
2017-11-18T23:55:04.891Z,76.40
